Greentown, Indiana
Current Conditions -  °F | °C
As of 12:55 PM on Saturday 20 Dec 2014 (Local Time) from KOKK Reporting Station
Overcast Overcast  
Wind Chill: 27°   Ceiling: 3000
Heat Index: 32°   Visibility: 5mi
Dew Point: 27°   Wind: 5mph
Humidity: 80%   Direction: 290°WNW
Pressure: 30.27"   Gusts: NA
Location:  40.48°N, 85.97°W
Report Text: KOKK 201755Z AUTO 29004KT 5SM OVC030 00/M03 A3027 RMK AO1 10000 21020 57007
Loading
Personal Weather Stations






























Interactive Weather Map New forecast layout! Learn more

10-Day Weather Forecast

Advertisements
Track Severe Weather on mobile